createdAt,value
2022-10-06T00:01:04.476Z,11.33
2022-10-06T00:03:33.173Z,10.90
2022-10-06T00:06:02.040Z,8.67
2022-10-06T00:08:31.718Z,8.17
2022-10-06T00:10:59.209Z,5.40
2022-10-06T00:13:27.777Z,5.17
2022-10-06T00:15:55.599Z,5.63
2022-10-06T00:18:22.924Z,5.13
2022-10-06T00:20:58.222Z,5.40
2022-10-06T00:23:26.056Z,5.90
2022-10-06T00:25:53.279Z,5.80
2022-10-06T00:28:21.132Z,6.17
2022-10-06T00:30:48.653Z,7.33
2022-10-06T00:33:17.788Z,6.40
2022-10-06T00:35:47.183Z,5.93
2022-10-06T00:38:16.336Z,7.37
2022-10-06T00:40:48.755Z,8.07
2022-10-06T00:43:55.219Z,8.17
2022-10-06T00:46:50.216Z,6.37
2022-10-06T00:49:26.301Z,8.33
2022-10-06T00:52:18.412Z,8.43
2022-10-06T00:54:45.920Z,6.20
2022-10-06T00:57:13.492Z,7.73
2022-10-06T00:59:41.529Z,7.07
2022-10-06T01:02:21.485Z,7.27
2022-10-06T01:04:53.008Z,5.87
2022-10-06T01:07:22.723Z,7.30
2022-10-06T01:09:50.361Z,9.40
2022-10-06T01:12:18.038Z,18.47
2022-10-06T01:14:45.617Z,13.70
2022-10-06T01:17:19.658Z,14.27
2022-10-06T01:19:55.307Z,11.07
2022-10-06T01:22:33.628Z,7.13
2022-10-06T01:25:01.661Z,6.53
2022-10-06T01:27:31.416Z,6.93
2022-10-06T01:29:59.932Z,6.87
2022-10-06T01:32:32.605Z,6.33
2022-10-06T01:35:00.242Z,6.33
2022-10-06T01:37:28.958Z,5.83
2022-10-06T01:39:56.280Z,5.30
2022-10-06T01:42:25.249Z,6.13
2022-10-06T01:44:52.924Z,4.87
2022-10-06T01:47:20.145Z,4.63
2022-10-06T01:49:47.397Z,5.40
2022-10-06T01:52:15.545Z,5.40
2022-10-06T01:54:42.811Z,5.73
2022-10-06T01:57:10.095Z,6.10
2022-10-06T01:59:38.789Z,7.33
2022-10-06T02:02:06.162Z,5.23
2022-10-06T02:04:33.450Z,5.30
2022-10-06T02:07:00.753Z,5.50
2022-10-06T02:09:28.699Z,5.40
2022-10-06T02:11:56.585Z,5.50
2022-10-06T02:14:23.812Z,5.43
2022-10-06T02:16:51.046Z,5.97
2022-10-06T02:19:18.601Z,7.57
2022-10-06T02:21:45.860Z,5.60
2022-10-06T02:24:13.145Z,5.27
2022-10-06T02:26:40.540Z,6.67
2022-10-06T02:29:08.114Z,5.10
2022-10-06T02:31:35.398Z,5.87
2022-10-06T02:34:03.040Z,5.93
2022-10-06T02:36:30.297Z,6.17
2022-10-06T02:38:57.543Z,6.50
2022-10-06T02:41:25.915Z,6.67
2022-10-06T02:43:55.305Z,6.23
2022-10-06T02:46:24.140Z,6.37
2022-10-06T02:48:53.844Z,6.30
2022-10-06T02:51:22.359Z,6.37
2022-10-06T02:53:50.800Z,6.83
2022-10-06T02:56:22.157Z,6.87
2022-10-06T02:58:51.067Z,6.50
2022-10-06T03:01:26.825Z,6.60
2022-10-06T03:03:56.933Z,6.67
2022-10-06T03:06:30.003Z,5.93
2022-10-06T03:09:29.518Z,7.53
2022-10-06T03:11:57.604Z,6.17
2022-10-06T03:14:36.782Z,6.60
2022-10-06T03:17:05.635Z,9.90
2022-10-06T03:19:32.901Z,5.43
2022-10-06T03:22:00.499Z,6.00
2022-10-06T03:24:47.962Z,6.00
2022-10-06T03:27:15.548Z,8.97
2022-10-06T03:29:42.927Z,6.63
2022-10-06T03:32:10.487Z,5.70
2022-10-06T03:34:38.731Z,5.50
2022-10-06T03:37:09.131Z,6.20
2022-10-06T03:39:36.420Z,5.73
2022-10-06T03:42:03.816Z,6.63
2022-10-06T03:44:34.770Z,6.57
2022-10-06T03:47:02.825Z,5.60
2022-10-06T03:49:31.539Z,5.77
2022-10-06T03:51:58.808Z,5.40
2022-10-06T03:54:31.036Z,6.47
2022-10-06T03:56:58.787Z,5.53
2022-10-06T03:59:29.070Z,6.00
2022-10-06T04:01:58.496Z,5.80
2022-10-06T04:04:29.831Z,6.10
2022-10-06T04:07:03.991Z,6.23
2022-10-06T04:09:32.251Z,6.43
2022-10-06T04:12:00.599Z,7.03
2022-10-06T04:14:27.899Z,7.20
2022-10-06T04:16:57.239Z,8.37
2022-10-06T04:19:32.083Z,19.93
2022-10-06T04:21:59.861Z,8.97
2022-10-06T04:24:27.690Z,6.10
2022-10-06T04:27:14.892Z,8.33
2022-10-06T04:29:45.506Z,8.83
2022-10-06T04:32:14.884Z,8.17
2022-10-06T04:34:42.644Z,12.87
2022-10-06T04:37:11.066Z,6.17
2022-10-06T04:39:39.748Z,6.70
2022-10-06T04:42:08.445Z,11.17
2022-10-06T04:44:36.815Z,6.90
2022-10-06T04:47:04.788Z,6.43
2022-10-06T04:49:32.425Z,6.37
2022-10-06T04:51:59.823Z,10.60
2022-10-06T04:54:33.869Z,10.23
2022-10-06T04:57:03.546Z,6.23
2022-10-06T04:59:50.955Z,8.63
2022-10-06T05:02:19.778Z,6.30
2022-10-06T05:04:50.718Z,9.47
2022-10-06T05:07:19.660Z,8.23
2022-10-06T05:09:46.964Z,12.07
2022-10-06T05:12:14.313Z,12.53
2022-10-06T05:14:41.594Z,6.77
2022-10-06T05:17:09.094Z,6.20
2022-10-06T05:19:37.842Z,5.27
2022-10-06T05:22:05.711Z,6.40
2022-10-06T05:24:33.736Z,8.23
2022-10-06T05:27:03.822Z,5.80
2022-10-06T05:29:32.115Z,6.17
2022-10-06T05:31:59.504Z,6.17
2022-10-06T05:34:28.737Z,13.50
2022-10-06T05:36:56.371Z,11.87
2022-10-06T05:39:23.617Z,7.17
2022-10-06T05:41:55.727Z,6.80
2022-10-06T05:44:23.093Z,5.70
2022-10-06T05:46:50.370Z,5.63
2022-10-06T05:49:18.817Z,5.30
2022-10-06T05:51:53.120Z,5.70
2022-10-06T05:54:27.574Z,6.10
2022-10-06T05:56:55.134Z,6.77
2022-10-06T05:59:23.085Z,7.40
2022-10-06T06:01:52.350Z,6.80
2022-10-06T06:04:34.557Z,11.57
2022-10-06T06:07:02.068Z,13.63
2022-10-06T06:09:29.431Z,5.87
2022-10-06T06:12:00.029Z,6.37
2022-10-06T06:15:09.008Z,18.63
2022-10-06T06:17:44.969Z,6.87
2022-10-06T06:20:13.213Z,6.90
2022-10-06T06:22:41.006Z,13.30
2022-10-06T06:25:08.945Z,8.97
2022-10-06T06:27:36.292Z,16.67
2022-10-06T06:30:06.209Z,20.93
2022-10-06T06:32:34.810Z,27.97
2022-10-06T06:35:03.062Z,28.30
2022-10-06T06:37:31.783Z,38.37
2022-10-06T06:39:59.761Z,35.27
2022-10-06T06:42:27.872Z,33.60
2022-10-06T06:45:00.486Z,36.77
2022-10-06T06:47:40.906Z,20.30
2022-10-06T06:50:10.388Z,30.27
2022-10-06T06:52:39.961Z,27.60
2022-10-06T06:55:10.358Z,22.83
2022-10-06T06:57:37.654Z,31.03
2022-10-06T07:00:08.026Z,33.67
2022-10-06T07:02:37.084Z,31.20
2022-10-06T07:05:05.260Z,45.77
2022-10-06T07:07:32.783Z,39.60
2022-10-06T07:10:01.002Z,39.17
2022-10-06T07:12:31.124Z,40.77
2022-10-06T07:15:17.400Z,61.17
2022-10-06T07:18:07.504Z,59.97
2022-10-06T07:20:53.945Z,58.27
2022-10-06T07:23:40.440Z,58.13
2022-10-06T07:26:12.557Z,37.00
2022-10-06T07:28:42.316Z,39.60
2022-10-06T07:31:10.193Z,40.47
2022-10-06T07:33:37.684Z,29.07
2022-10-06T07:36:06.123Z,11.97
2022-10-06T07:38:34.740Z,16.30
2022-10-06T07:43:53.856Z,8.53
2022-10-06T07:46:21.515Z,11.67
2022-10-06T07:49:03.019Z,13.03
2022-10-06T07:51:31.382Z,9.37
2022-10-06T07:53:59.742Z,12.57
2022-10-06T07:56:47.177Z,7.13
2022-10-06T07:59:14.398Z,6.40
2022-10-06T08:01:41.706Z,7.00
2022-10-06T08:04:09.008Z,8.80
2022-10-06T08:06:36.588Z,10.87
2022-10-06T08:09:04.601Z,6.13
2022-10-06T08:11:32.463Z,5.57
2022-10-06T08:14:00.253Z,7.43
2022-10-06T08:16:30.718Z,5.57
2022-10-06T08:18:59.347Z,5.97
2022-10-06T08:21:29.674Z,5.80
2022-10-06T08:23:58.776Z,6.67
2022-10-06T08:26:27.307Z,5.83
2022-10-06T08:28:59.734Z,7.63
2022-10-06T08:31:27.091Z,6.00
2022-10-06T08:33:56.836Z,6.53
2022-10-06T08:36:30.946Z,36.90
2022-10-06T08:39:00.148Z,6.20
2022-10-06T08:41:39.554Z,9.83
2022-10-06T08:44:22.961Z,5.63
2022-10-06T08:47:28.061Z,4.53
2022-10-06T08:49:57.109Z,5.17
2022-10-06T08:52:26.368Z,9.83
2022-10-06T08:55:14.973Z,6.73
2022-10-06T08:57:55.346Z,8.50
2022-10-06T09:00:22.890Z,8.10
2022-10-06T09:02:50.934Z,3.90
2022-10-06T09:05:25.284Z,10.83
2022-10-06T09:08:04.433Z,10.07
2022-10-06T09:10:58.925Z,10.83
2022-10-06T09:13:33.345Z,6.57
2022-10-06T09:16:07.586Z,7.90
2022-10-06T09:21:49.978Z,5.47
2022-10-06T09:24:24.390Z,5.23
2022-10-06T09:26:53.278Z,3.60
2022-10-06T09:29:20.550Z,4.60
2022-10-06T09:31:50.384Z,5.03
2022-10-06T09:34:44.689Z,6.07
2022-10-06T09:37:13.580Z,4.53
2022-10-06T09:39:48.191Z,3.57
2022-10-06T09:42:15.539Z,6.50
2022-10-06T09:44:52.252Z,3.10
2022-10-06T09:47:33.286Z,3.63
2022-10-06T09:50:12.391Z,7.23
2022-10-06T09:52:41.825Z,3.80
2022-10-06T09:55:12.837Z,2.87
2022-10-06T09:57:49.214Z,2.03
2022-10-06T10:00:35.892Z,4.30
2022-10-06T10:03:06.660Z,3.60
2022-10-06T10:05:36.840Z,5.23
2022-10-06T10:08:25.601Z,3.00
2022-10-06T10:11:08.135Z,2.80
2022-10-06T10:13:44.250Z,4.10
2022-10-06T10:16:16.603Z,3.53
2022-10-06T10:18:51.030Z,3.17
2022-10-06T10:21:27.027Z,6.83
2022-10-06T10:23:58.770Z,4.77
2022-10-06T10:26:29.105Z,6.63
2022-10-06T10:29:41.399Z,4.83
2022-10-06T10:32:50.461Z,1.63
2022-10-06T10:35:23.607Z,3.33
2022-10-06T10:38:01.384Z,4.77
2022-10-06T10:40:43.057Z,4.50
2022-10-06T10:43:36.152Z,3.93
2022-10-06T10:46:27.269Z,5.73
2022-10-06T10:49:04.115Z,2.33
2022-10-06T10:52:03.973Z,2.43
2022-10-06T10:54:37.905Z,4.00
2022-10-06T10:57:13.908Z,1.77
2022-10-06T10:59:52.438Z,3.80
2022-10-06T11:02:21.805Z,6.33
2022-10-06T11:04:53.990Z,3.57
2022-10-06T11:07:38.977Z,2.33
2022-10-06T11:10:24.066Z,1.90
2022-10-06T11:13:25.356Z,6.43
2022-10-06T11:16:16.223Z,2.67
2022-10-06T11:18:53.624Z,3.77
2022-10-06T11:21:31.189Z,1.90
2022-10-06T11:24:16.395Z,5.60
2022-10-06T11:26:53.599Z,1.67
2022-10-06T11:29:38.894Z,5.03
2022-10-06T11:32:23.465Z,3.63
2022-10-06T11:34:52.751Z,3.67
2022-10-06T11:37:35.172Z,4.50
2022-10-06T11:40:28.128Z,6.50
2022-10-06T11:43:03.885Z,4.00
2022-10-06T11:45:49.598Z,4.20
2022-10-06T11:48:31.679Z,4.53
2022-10-06T11:51:24.986Z,3.70
2022-10-06T11:53:52.979Z,5.67
2022-10-06T11:56:20.151Z,2.67
2022-10-06T11:58:56.473Z,2.83
2022-10-06T12:01:36.288Z,2.73
2022-10-06T12:04:15.075Z,3.30
2022-10-06T12:06:42.541Z,5.70
2022-10-06T12:09:33.214Z,5.60
2022-10-06T12:12:07.019Z,2.23
2022-10-06T12:17:41.778Z,4.30
2022-10-06T12:20:17.869Z,2.60
2022-10-06T12:22:55.025Z,4.63
2022-10-06T12:25:37.495Z,2.90
2022-10-06T12:28:20.994Z,4.43
2022-10-06T12:31:06.560Z,2.20
2022-10-06T12:33:39.839Z,4.07
2022-10-06T12:36:23.494Z,6.33
2022-10-06T12:39:24.336Z,2.43
2022-10-06T12:42:17.830Z,1.90
2022-10-06T12:44:51.502Z,2.93
2022-10-06T12:47:21.836Z,3.17
2022-10-06T12:49:57.160Z,3.83
2022-10-06T12:52:32.167Z,5.50
2022-10-06T12:55:15.086Z,3.40
2022-10-06T12:57:47.489Z,3.40
2022-10-06T13:00:31.326Z,3.93
2022-10-06T13:03:00.986Z,6.47
2022-10-06T13:05:29.234Z,4.63
2022-10-06T13:08:07.621Z,5.47
2022-10-06T13:10:35.141Z,5.63
2022-10-06T13:13:02.618Z,4.53
2022-10-06T13:15:35.563Z,6.60
2022-10-06T13:18:16.016Z,2.23
2022-10-06T13:20:53.900Z,8.90
2022-10-06T13:23:38.044Z,2.57
2022-10-06T13:26:26.874Z,5.47
2022-10-06T13:28:56.234Z,2.07
2022-10-06T13:31:31.761Z,3.47
2022-10-06T13:34:15.795Z,2.80
2022-10-06T13:36:46.893Z,6.70
2022-10-06T13:39:15.565Z,2.47
2022-10-06T13:42:10.307Z,3.83
2022-10-06T13:44:49.490Z,3.43
2022-10-06T13:47:22.583Z,6.27
2022-10-06T13:49:58.880Z,7.03
2022-10-06T13:52:37.867Z,4.43
2022-10-06T13:55:21.244Z,2.43
2022-10-06T13:58:04.926Z,2.77
2022-10-06T14:01:00.831Z,2.03
2022-10-06T14:06:16.209Z,3.50
2022-10-06T14:08:49.716Z,3.03
2022-10-06T14:11:24.206Z,4.93
2022-10-06T14:14:03.814Z,4.00
2022-10-06T14:16:31.454Z,3.60
2022-10-06T14:19:04.784Z,8.73
2022-10-06T14:21:41.449Z,4.63
2022-10-06T14:24:20.732Z,6.17
2022-10-06T14:26:49.778Z,1.90
2022-10-06T14:29:18.481Z,3.53
2022-10-06T14:31:47.204Z,5.03
2022-10-06T14:34:17.453Z,4.53
2022-10-06T14:36:53.517Z,6.60
2022-10-06T14:39:21.256Z,8.20
2022-10-06T14:41:48.526Z,3.23
2022-10-06T14:44:16.234Z,3.50
2022-10-06T14:46:48.041Z,2.00
2022-10-06T14:49:16.303Z,3.70
2022-10-06T14:51:44.681Z,7.77
2022-10-06T14:54:12.472Z,10.87
2022-10-06T14:56:41.220Z,3.10
2022-10-06T14:59:12.094Z,5.57
2022-10-06T15:01:40.521Z,3.97
2022-10-06T15:04:11.226Z,5.37
2022-10-06T15:06:57.591Z,2.97
2022-10-06T15:09:25.403Z,4.63
2022-10-06T15:11:54.186Z,5.10
2022-10-06T15:14:25.024Z,6.27
2022-10-06T15:16:52.409Z,7.27
2022-10-06T15:19:19.633Z,8.70
2022-10-06T15:21:47.191Z,7.43
2022-10-06T15:24:16.672Z,4.57
2022-10-06T15:27:03.467Z,4.50
2022-10-06T15:29:31.820Z,5.97
2022-10-06T15:32:00.411Z,3.37
2022-10-06T15:34:30.035Z,4.37
2022-10-06T15:36:57.943Z,3.10
2022-10-06T15:39:27.651Z,5.63
2022-10-06T15:41:54.896Z,6.77
2022-10-06T15:44:22.576Z,2.27
2022-10-06T15:46:54.894Z,4.20
2022-10-06T15:49:26.753Z,3.67
2022-10-06T15:52:04.957Z,4.17
2022-10-06T15:54:40.845Z,4.70
2022-10-06T15:57:13.893Z,6.27
2022-10-06T15:59:44.395Z,6.37
2022-10-06T16:02:17.174Z,6.93
2022-10-06T16:04:55.597Z,5.67
2022-10-06T16:07:22.979Z,4.87
2022-10-06T16:09:51.487Z,5.77
2022-10-06T16:12:24.723Z,6.37
2022-10-06T16:14:51.997Z,5.27
2022-10-06T16:17:19.217Z,3.90
2022-10-06T16:19:47.265Z,7.40
2022-10-06T16:22:16.920Z,5.90
2022-10-06T16:24:44.153Z,8.13
2022-10-06T16:27:13.032Z,7.00
2022-10-06T16:29:40.781Z,8.43
2022-10-06T16:32:08.356Z,6.77
2022-10-06T16:34:35.559Z,4.67
2022-10-06T16:37:03.047Z,7.80
2022-10-06T16:39:30.635Z,6.00
2022-10-06T16:41:57.974Z,6.03
2022-10-06T16:44:25.314Z,3.97
2022-10-06T16:46:52.598Z,9.37
2022-10-06T16:49:20.833Z,11.20
2022-10-06T16:51:48.230Z,5.30
2022-10-06T16:54:17.579Z,6.20
2022-10-06T16:56:52.067Z,8.93
2022-10-06T16:59:21.771Z,7.40
2022-10-06T17:01:50.689Z,7.63
2022-10-06T17:04:20.559Z,19.23
2022-10-06T17:06:50.429Z,12.37
2022-10-06T17:09:19.908Z,12.67
2022-10-06T17:11:52.708Z,43.67
2022-10-06T17:14:21.333Z,27.03
2022-10-06T17:16:51.334Z,19.73
2022-10-06T17:19:20.767Z,18.83
2022-10-06T17:21:51.554Z,28.13
2022-10-06T17:24:23.062Z,24.37
2022-10-06T17:26:50.389Z,16.67
2022-10-06T17:29:21.369Z,15.13
2022-10-06T17:31:58.726Z,15.57
2022-10-06T17:34:31.724Z,20.70
2022-10-06T17:37:01.256Z,14.93
2022-10-06T17:39:28.795Z,13.40
2022-10-06T17:41:56.121Z,11.30
2022-10-06T17:44:26.838Z,10.50
2022-10-06T17:46:58.780Z,13.43
2022-10-06T17:49:27.347Z,13.67
2022-10-06T17:51:55.270Z,10.63
2022-10-06T17:54:25.520Z,9.40
2022-10-06T17:56:56.114Z,11.90
2022-10-06T17:59:32.025Z,5.90
2022-10-06T18:02:02.765Z,6.40
2022-10-06T18:04:30.613Z,9.33
2022-10-06T18:06:58.381Z,13.47
2022-10-06T18:09:25.930Z,10.10
2022-10-06T18:11:56.799Z,8.63
2022-10-06T18:14:26.797Z,9.70
2022-10-06T18:17:01.062Z,13.17
2022-10-06T18:19:31.170Z,13.07
2022-10-06T18:22:01.081Z,6.80
2022-10-06T18:24:30.358Z,8.57
2022-10-06T18:26:59.966Z,6.03
2022-10-06T18:29:32.760Z,11.20
2022-10-06T18:37:36.273Z,6.57
2022-10-06T18:40:06.921Z,7.20
2022-10-06T18:42:34.433Z,7.97
2022-10-06T18:45:20.084Z,11.23
2022-10-06T18:48:05.917Z,12.87
2022-10-06T18:50:34.194Z,12.67
2022-10-06T18:53:01.862Z,8.70
2022-10-06T18:55:29.905Z,10.53
2022-10-06T18:57:57.522Z,8.83
2022-10-06T19:00:26.134Z,7.63
2022-10-06T19:02:55.683Z,10.67
2022-10-06T19:05:23.688Z,16.10
2022-10-06T19:07:53.707Z,11.60
2022-10-06T19:10:21.640Z,8.50
2022-10-06T19:12:49.467Z,11.57
2022-10-06T19:15:20.718Z,7.73
2022-10-06T19:17:50.042Z,11.40
2022-10-06T19:20:18.697Z,10.37
2022-10-06T19:22:47.834Z,9.77
2022-10-06T19:25:18.720Z,10.83
2022-10-06T19:27:46.303Z,12.23
2022-10-06T19:30:14.480Z,12.73
2022-10-06T19:32:41.988Z,11.37
2022-10-06T19:35:10.305Z,11.77
2022-10-06T19:37:38.615Z,15.20
2022-10-06T19:40:08.575Z,16.20
2022-10-06T19:42:47.912Z,8.73
2022-10-06T19:45:16.388Z,13.50
2022-10-06T19:47:45.938Z,9.10
2022-10-06T19:50:14.507Z,14.80
2022-10-06T19:52:42.191Z,9.97
2022-10-06T19:55:09.700Z,9.50
2022-10-06T19:57:37.170Z,10.80
2022-10-06T20:00:06.255Z,9.93
2022-10-06T20:02:42.892Z,5.57
2022-10-06T20:05:12.839Z,8.93
2022-10-06T20:07:41.622Z,7.00
2022-10-06T20:10:11.715Z,12.00
2022-10-06T20:12:41.573Z,12.70
2022-10-06T20:15:10.351Z,13.67
2022-10-06T20:17:37.920Z,11.07
2022-10-06T20:20:05.626Z,10.97
2022-10-06T20:22:32.868Z,12.33
2022-10-06T20:25:01.873Z,10.00
2022-10-06T20:27:29.235Z,14.60
2022-10-06T20:29:58.171Z,11.43
2022-10-06T20:32:25.628Z,10.83
2022-10-06T20:34:52.974Z,8.53
2022-10-06T20:37:20.248Z,11.80
2022-10-06T20:40:05.941Z,7.73
2022-10-06T20:42:33.652Z,14.70
2022-10-06T20:45:00.876Z,15.80
2022-10-06T20:47:28.211Z,16.37
2022-10-06T20:49:55.551Z,16.77
2022-10-06T20:52:24.373Z,13.17
2022-10-06T20:54:52.128Z,9.83
2022-10-06T20:57:19.594Z,8.20
2022-10-06T20:59:46.948Z,11.47
2022-10-06T21:02:14.157Z,9.77
2022-10-06T21:04:43.495Z,8.93
2022-10-06T21:07:11.322Z,12.77
2022-10-06T21:09:38.528Z,12.73
2022-10-06T21:12:05.841Z,11.43
2022-10-06T21:14:34.251Z,11.40
2022-10-06T21:17:01.874Z,9.00
2022-10-06T21:19:29.955Z,10.47
2022-10-06T21:21:57.272Z,13.70
2022-10-06T21:24:24.603Z,13.17
2022-10-06T21:26:52.666Z,11.53
2022-10-06T21:29:20.906Z,8.23
2022-10-06T21:31:48.213Z,7.40
2022-10-06T21:34:15.494Z,11.80
2022-10-06T21:36:43.767Z,14.23
2022-10-06T21:39:12.498Z,10.63
2022-10-06T21:41:40.274Z,9.90
2022-10-06T21:44:13.523Z,10.03
2022-10-06T21:46:51.740Z,9.63
2022-10-06T21:49:20.954Z,10.87
2022-10-06T21:51:51.122Z,10.97
2022-10-06T21:54:19.825Z,7.43
2022-10-06T21:56:47.382Z,10.93
2022-10-06T21:59:14.879Z,8.87
2022-10-06T22:01:44.964Z,8.30
2022-10-06T22:04:14.446Z,8.50
2022-10-06T22:06:43.062Z,9.07
2022-10-06T22:09:14.754Z,6.70
2022-10-06T22:11:42.153Z,7.60
2022-10-06T22:14:12.593Z,7.43
2022-10-06T22:16:39.924Z,7.43
2022-10-06T22:19:09.344Z,5.60
2022-10-06T22:21:39.240Z,9.13
2022-10-06T22:24:13.350Z,12.77
2022-10-06T22:26:42.195Z,7.27
2022-10-06T22:29:11.944Z,8.50
2022-10-06T22:31:40.996Z,8.13
2022-10-06T22:34:10.444Z,5.53
2022-10-06T22:36:37.828Z,8.17
2022-10-06T22:39:05.292Z,8.97
2022-10-06T22:41:32.494Z,9.23
2022-10-06T22:44:00.448Z,7.90
2022-10-06T22:46:30.657Z,8.33
2022-10-06T22:48:58.431Z,7.53
2022-10-06T22:51:26.036Z,7.50
2022-10-06T22:53:58.892Z,8.17
2022-10-06T22:56:28.159Z,6.73
2022-10-06T22:58:56.908Z,10.10
2022-10-06T23:01:24.298Z,10.03
2022-10-06T23:03:55.601Z,8.00
2022-10-06T23:06:23.223Z,7.87
2022-10-06T23:08:50.493Z,8.73
2022-10-06T23:11:20.768Z,8.70
2022-10-06T23:13:50.084Z,7.63
2022-10-06T23:16:19.520Z,8.13
2022-10-06T23:18:48.147Z,7.63
2022-10-06T23:21:21.513Z,7.30
2022-10-06T23:23:51.653Z,8.73
2022-10-06T23:26:20.131Z,7.10
2022-10-06T23:28:52.323Z,6.20
2022-10-06T23:31:19.923Z,6.10
2022-10-06T23:33:47.339Z,5.10
2022-10-06T23:36:14.998Z,6.50
2022-10-06T23:38:42.589Z,9.00
2022-10-06T23:41:10.454Z,7.23
2022-10-06T23:43:37.681Z,8.63
2022-10-06T23:46:05.124Z,6.03
2022-10-06T23:48:32.482Z,13.53
2022-10-06T23:51:02.503Z,10.00
2022-10-06T23:53:31.094Z,6.10
2022-10-06T23:55:58.659Z,6.50
2022-10-06T23:58:27.095Z,6.40
